createdAt,value
2023-04-07T00:00:16.477Z,1.03
2023-04-07T00:01:20.632Z,1.05
2023-04-07T00:02:24.946Z,1.05
2023-04-07T00:03:29.277Z,1.06
2023-04-07T00:04:33.407Z,1.05
2023-04-07T00:05:37.431Z,1.06
2023-04-07T00:06:41.565Z,1.05
2023-04-07T00:07:55.913Z,1.05
2023-04-07T00:08:50.030Z,1.03
2023-04-07T00:09:54.145Z,1.00
2023-04-07T00:10:58.416Z,0.99
2023-04-07T00:12:02.477Z,0.97
2023-04-07T00:13:06.757Z,0.96
2023-04-07T00:14:10.989Z,0.95
2023-04-07T00:15:15.201Z,0.97
2023-04-07T00:16:19.476Z,0.95
2023-04-07T00:17:23.427Z,0.95
2023-04-07T00:18:27.724Z,0.95
2023-04-07T00:19:31.973Z,0.95
2023-04-07T00:20:36.046Z,0.95
2023-04-07T00:21:40.353Z,0.95
2023-04-07T00:22:44.537Z,0.92
2023-04-07T00:23:48.756Z,0.91
2023-04-07T00:24:52.866Z,0.91
2023-04-07T00:25:57.038Z,0.91
2023-04-07T00:27:01.267Z,0.90
2023-04-07T00:28:05.488Z,0.91
2023-04-07T00:29:09.654Z,0.92
2023-04-07T00:30:14.028Z,0.94
2023-04-07T00:31:18.428Z,0.95
2023-04-07T00:32:25.585Z,0.97
2023-04-07T00:33:28.825Z,0.97
2023-04-07T00:34:33.024Z,0.97
2023-04-07T00:35:37.278Z,0.98
2023-04-07T00:36:41.415Z,0.98
2023-04-07T00:37:45.639Z,0.98
2023-04-07T00:38:49.860Z,0.97
2023-04-07T00:39:54.057Z,0.97
2023-04-07T00:40:58.317Z,0.98
2023-04-07T00:42:02.460Z,0.98
2023-04-07T00:43:06.613Z,0.99
2023-04-07T00:44:10.851Z,0.97
2023-04-07T00:45:14.993Z,0.96
2023-04-07T00:46:19.234Z,0.97
2023-04-07T00:47:23.459Z,0.97
2023-04-07T00:48:33.612Z,0.97
2023-04-07T00:49:36.426Z,0.98
2023-04-07T00:50:40.544Z,1.01
2023-04-07T00:51:44.806Z,1.02
2023-04-07T00:52:49.019Z,1.04
2023-04-07T00:53:53.680Z,1.04
2023-04-07T00:54:57.397Z,1.05
2023-04-07T00:56:01.597Z,1.04
2023-04-07T00:57:05.831Z,1.05
2023-04-07T00:58:10.039Z,1.05
2023-04-07T00:59:20.272Z,1.04
2023-04-07T01:00:23.003Z,1.03
2023-04-07T01:01:27.399Z,1.04
2023-04-07T01:02:31.666Z,1.04
2023-04-07T01:03:35.924Z,1.03
2023-04-07T01:04:40.178Z,1.03
2023-04-07T01:05:44.126Z,1.02
2023-04-07T01:06:48.319Z,1.03
2023-04-07T01:07:52.561Z,1.04
2023-04-07T01:08:56.895Z,1.03
2023-04-07T01:10:01.181Z,1.04
2023-04-07T01:11:05.333Z,1.03
2023-04-07T01:12:09.458Z,1.02
2023-04-07T01:13:13.690Z,1.03
2023-04-07T01:14:17.834Z,1.02
2023-04-07T01:15:22.011Z,1.03
2023-04-07T01:16:26.353Z,1.04
2023-04-07T01:17:30.555Z,1.03
2023-04-07T01:18:37.684Z,1.03
2023-04-07T01:19:40.971Z,1.04
2023-04-07T01:20:45.182Z,1.05
2023-04-07T01:21:49.273Z,1.04
2023-04-07T01:22:53.527Z,1.03
2023-04-07T01:23:57.688Z,1.04
2023-04-07T01:25:01.773Z,1.04
2023-04-07T01:26:05.927Z,1.04
2023-04-07T01:27:10.136Z,1.03
2023-04-07T01:28:14.468Z,1.03
2023-04-07T01:29:18.705Z,1.02
2023-04-07T01:30:22.938Z,1.02
2023-04-07T01:31:27.009Z,1.00
2023-04-07T01:32:31.072Z,0.98
2023-04-07T01:33:36.580Z,1.00
2023-04-07T01:34:39.451Z,0.99
2023-04-07T01:35:43.690Z,1.00
2023-04-07T01:36:47.937Z,1.00
2023-04-07T01:37:52.175Z,1.00
2023-04-07T01:38:56.337Z,1.00
2023-04-07T01:40:00.582Z,1.00
2023-04-07T01:41:04.828Z,1.00
2023-04-07T01:42:09.820Z,1.01
2023-04-07T01:43:13.613Z,0.99
2023-04-07T01:44:17.640Z,0.98
2023-04-07T01:45:21.890Z,0.99
2023-04-07T01:46:26.040Z,0.99
2023-04-07T01:47:30.324Z,1.00
2023-04-07T01:48:34.527Z,0.97
2023-04-07T01:49:38.594Z,0.96
2023-04-07T01:50:42.967Z,0.94
2023-04-07T01:51:46.986Z,0.94
2023-04-07T01:52:51.172Z,0.94
2023-04-07T01:53:55.783Z,0.93
2023-04-07T01:54:59.491Z,0.93
2023-04-07T01:56:03.792Z,0.93
2023-04-07T01:57:07.914Z,0.93
2023-04-07T01:58:12.139Z,0.93
2023-04-07T01:59:16.268Z,0.93
2023-04-07T02:00:20.300Z,0.93
2023-04-07T02:01:24.579Z,0.93
2023-04-07T02:02:28.948Z,0.92
2023-04-07T02:03:32.835Z,0.91
2023-04-07T02:04:36.987Z,0.91
2023-04-07T02:05:47.172Z,0.92
2023-04-07T02:06:49.927Z,0.91
2023-04-07T02:07:54.109Z,0.93
2023-04-07T02:08:58.288Z,0.92
2023-04-07T02:10:02.397Z,0.93
2023-04-07T02:11:06.428Z,0.93
2023-04-07T02:12:10.532Z,0.93
2023-04-07T02:13:15.925Z,0.93
2023-04-07T02:14:19.618Z,0.93
2023-04-07T02:15:23.784Z,0.93
2023-04-07T02:16:27.840Z,0.92
2023-04-07T02:17:31.888Z,0.92
2023-04-07T02:18:36.175Z,0.92
2023-04-07T02:19:40.421Z,0.92
2023-04-07T02:20:44.517Z,0.91
2023-04-07T02:21:48.815Z,0.90
2023-04-07T02:22:52.761Z,0.89
2023-04-07T02:23:57.202Z,0.88
2023-04-07T02:25:01.144Z,0.87
2023-04-07T02:26:05.404Z,0.84
2023-04-07T02:27:09.487Z,0.83
2023-04-07T02:28:13.733Z,0.82
2023-04-07T02:29:17.781Z,0.83
2023-04-07T02:30:21.880Z,0.83
2023-04-07T02:31:26.193Z,0.82
2023-04-07T02:32:30.286Z,0.82
2023-04-07T02:33:34.509Z,0.82
2023-04-07T02:34:38.732Z,0.82
2023-04-07T02:35:42.942Z,0.82
2023-04-07T02:36:47.124Z,0.81
2023-04-07T02:37:51.256Z,0.81
2023-04-07T02:38:55.313Z,0.80
2023-04-07T02:39:59.559Z,0.80
2023-04-07T02:41:03.796Z,0.80
2023-04-07T02:42:07.771Z,0.78
2023-04-07T02:43:11.994Z,0.78
2023-04-07T02:44:16.249Z,0.77
2023-04-07T02:45:20.471Z,0.78
2023-04-07T02:46:24.575Z,0.78
2023-04-07T02:47:28.827Z,0.80
2023-04-07T02:48:32.997Z,0.79
2023-04-07T02:49:37.143Z,0.78
2023-04-07T02:50:41.329Z,0.79
2023-04-07T02:51:45.509Z,0.78
2023-04-07T02:52:49.724Z,0.77
2023-04-07T02:53:54.244Z,0.76
2023-04-07T02:54:58.072Z,0.77
2023-04-07T02:56:02.354Z,0.76
2023-04-07T02:57:06.568Z,0.77
2023-04-07T02:58:10.749Z,0.78
2023-04-07T02:59:14.947Z,0.76
2023-04-07T03:00:19.101Z,0.78
2023-04-07T03:01:23.313Z,0.78
2023-04-07T03:02:27.752Z,0.80
2023-04-07T03:03:31.875Z,0.81
2023-04-07T03:04:35.858Z,0.81
2023-04-07T03:05:40.133Z,0.80
2023-04-07T03:06:44.241Z,0.79
2023-04-07T03:07:48.625Z,0.78
2023-04-07T03:08:52.752Z,0.76
2023-04-07T03:09:56.869Z,0.76
2023-04-07T03:11:01.082Z,0.76
2023-04-07T03:12:05.162Z,0.76
2023-04-07T03:13:09.388Z,0.74
2023-04-07T03:14:13.369Z,0.74
2023-04-07T03:15:18.884Z,0.74
2023-04-07T03:16:21.701Z,0.74
2023-04-07T03:17:25.846Z,0.74
2023-04-07T03:18:30.021Z,0.75
2023-04-07T03:19:34.217Z,0.76
2023-04-07T03:20:38.398Z,0.76
2023-04-07T03:21:42.577Z,0.77
2023-04-07T03:22:46.803Z,0.77
2023-04-07T03:23:50.932Z,0.77
2023-04-07T03:24:55.204Z,0.78
2023-04-07T03:25:59.411Z,0.76
2023-04-07T03:27:03.603Z,0.76
2023-04-07T03:28:07.606Z,0.75
2023-04-07T03:29:11.898Z,0.75
2023-04-07T03:30:16.065Z,0.75
2023-04-07T03:31:20.284Z,0.75
2023-04-07T03:32:24.426Z,0.76
2023-04-07T03:33:28.633Z,0.76
2023-04-07T03:34:32.753Z,0.75
2023-04-07T03:35:40.022Z,0.73
2023-04-07T03:36:43.281Z,0.72
2023-04-07T03:37:47.352Z,0.71
2023-04-07T03:38:51.505Z,0.70
2023-04-07T03:39:55.754Z,0.69
2023-04-07T03:40:59.799Z,0.68
2023-04-07T03:42:04.268Z,0.67
2023-04-07T03:43:08.295Z,0.65
2023-04-07T03:44:12.483Z,0.64
2023-04-07T03:45:30.773Z,0.62
2023-04-07T03:46:33.829Z,0.62
2023-04-07T03:47:51.956Z,0.61
2023-04-07T03:48:54.623Z,0.59
2023-04-07T03:49:58.653Z,0.57
2023-04-07T03:51:02.786Z,0.54
2023-04-07T03:52:06.801Z,0.52
2023-04-07T03:53:10.915Z,0.50
2023-04-07T03:54:15.017Z,0.50
2023-04-07T03:55:19.385Z,0.51
2023-04-07T03:56:23.451Z,0.52
2023-04-07T03:57:27.745Z,0.53
2023-04-07T03:58:31.979Z,0.53
2023-04-07T03:59:51.069Z,0.52
2023-04-07T04:00:54.248Z,0.52
2023-04-07T04:01:58.272Z,0.53
2023-04-07T04:03:02.505Z,0.51
2023-04-07T04:04:06.614Z,0.49
2023-04-07T04:05:10.582Z,0.48
2023-04-07T04:06:14.700Z,0.45
2023-04-07T04:07:18.796Z,0.46
2023-04-07T04:08:22.899Z,0.45
2023-04-07T04:09:27.173Z,0.46
2023-04-07T04:10:31.369Z,0.45
2023-04-07T04:11:35.570Z,0.44
2023-04-07T04:12:39.776Z,0.42
2023-04-07T04:13:43.765Z,0.41
2023-04-07T04:14:48.097Z,0.41
2023-04-07T04:15:52.283Z,0.40
2023-04-07T04:16:56.461Z,0.38
2023-04-07T04:18:01.555Z,0.38
2023-04-07T04:19:05.348Z,0.38
2023-04-07T04:20:09.384Z,0.38
2023-04-07T04:21:13.679Z,0.37
2023-04-07T04:22:20.933Z,0.38
2023-04-07T04:23:24.227Z,0.39
2023-04-07T04:24:28.429Z,0.39
2023-04-07T04:25:32.631Z,0.39
2023-04-07T04:26:36.735Z,0.36
2023-04-07T04:27:40.971Z,0.35
2023-04-07T04:28:45.108Z,0.35
2023-04-07T04:29:49.089Z,0.38
2023-04-07T04:30:53.204Z,0.38
2023-04-07T04:31:57.656Z,0.39
2023-04-07T04:33:01.871Z,0.37
2023-04-07T04:34:06.069Z,0.35
2023-04-07T04:35:10.107Z,0.34
2023-04-07T04:36:14.391Z,0.30
2023-04-07T04:37:18.647Z,0.30
2023-04-07T04:38:22.633Z,0.28
2023-04-07T04:39:26.917Z,0.26
2023-04-07T04:40:31.123Z,0.25
2023-04-07T04:41:35.412Z,0.23
2023-04-07T04:42:39.574Z,0.21
2023-04-07T04:43:43.675Z,0.20
2023-04-07T04:44:48.110Z,0.21
2023-04-07T04:45:52.188Z,0.21
2023-04-07T04:46:56.367Z,0.21
2023-04-07T04:48:00.440Z,0.23
2023-04-07T04:49:04.610Z,0.25
2023-04-07T04:50:08.860Z,0.26
2023-04-07T04:51:12.869Z,0.28
2023-04-07T04:52:17.124Z,0.29
2023-04-07T04:53:21.154Z,0.31
2023-04-07T04:54:25.432Z,0.32
2023-04-07T04:55:29.619Z,0.35
2023-04-07T04:56:33.597Z,0.37
2023-04-07T04:57:38.009Z,0.40
2023-04-07T04:58:42.231Z,0.43
2023-04-07T04:59:46.254Z,0.46
2023-04-07T05:00:50.767Z,0.49
2023-04-07T05:01:54.616Z,0.53
2023-04-07T05:02:58.991Z,0.56
2023-04-07T05:04:03.201Z,0.60
2023-04-07T05:05:07.177Z,0.64
2023-04-07T05:06:11.332Z,0.68
2023-04-07T05:07:15.580Z,0.72
2023-04-07T05:08:19.757Z,0.74
2023-04-07T05:09:23.861Z,0.77
2023-04-07T05:10:28.069Z,0.79
2023-04-07T05:11:32.409Z,0.81
2023-04-07T05:12:36.425Z,0.83
2023-04-07T05:13:40.637Z,0.85
2023-04-07T05:14:44.832Z,0.87
2023-04-07T05:15:48.965Z,0.88
2023-04-07T05:16:53.050Z,0.91
2023-04-07T05:17:57.073Z,0.92
2023-04-07T05:19:01.300Z,0.94
2023-04-07T05:20:05.316Z,0.97
2023-04-07T05:21:09.486Z,0.99
2023-04-07T05:22:13.858Z,1.01
2023-04-07T05:23:17.921Z,1.02
2023-04-07T05:24:22.158Z,1.03
2023-04-07T05:25:26.594Z,1.04
2023-04-07T05:26:30.648Z,1.05
2023-04-07T05:27:34.715Z,1.06
2023-04-07T05:28:38.854Z,1.08
2023-04-07T05:29:42.965Z,1.10
2023-04-07T05:30:47.197Z,1.12
2023-04-07T05:31:51.582Z,1.13
2023-04-07T05:32:55.634Z,1.14
2023-04-07T05:33:59.772Z,1.16
2023-04-07T05:35:03.931Z,1.17
2023-04-07T05:36:08.167Z,1.20
2023-04-07T05:37:12.376Z,1.21
2023-04-07T05:38:16.585Z,1.25
2023-04-07T05:39:20.713Z,1.28
2023-04-07T05:40:24.989Z,1.31
2023-04-07T05:41:29.048Z,1.36
2023-04-07T05:42:33.234Z,1.41
2023-04-07T05:43:37.521Z,1.45
2023-04-07T05:44:41.701Z,1.51
2023-04-07T05:45:45.939Z,1.57
2023-04-07T05:46:50.132Z,1.64
2023-04-07T05:47:54.157Z,1.71
2023-04-07T05:49:00.793Z,1.80
2023-04-07T05:50:02.517Z,1.88
2023-04-07T05:51:06.772Z,1.95
2023-04-07T05:52:10.912Z,2.02
2023-04-07T05:53:18.145Z,2.09
2023-04-07T05:54:21.374Z,2.14
2023-04-07T05:55:25.571Z,2.19
2023-04-07T05:56:29.822Z,2.24
2023-04-07T05:57:34.131Z,2.29
2023-04-07T05:58:38.115Z,2.32
2023-04-07T05:59:42.413Z,2.36
2023-04-07T06:00:46.407Z,2.40
2023-04-07T06:01:50.712Z,2.42
2023-04-07T06:02:55.051Z,2.44
2023-04-07T06:03:59.195Z,2.48
2023-04-07T06:05:03.429Z,2.51
2023-04-07T06:06:07.593Z,2.53
2023-04-07T06:07:11.811Z,2.57
2023-04-07T06:08:16.123Z,2.62
2023-04-07T06:09:20.254Z,2.64
2023-04-07T06:10:24.531Z,2.67
2023-04-07T06:11:28.756Z,2.70
2023-04-07T06:12:32.864Z,2.74
2023-04-07T06:13:40.060Z,2.78
2023-04-07T06:14:43.480Z,2.81
2023-04-07T06:15:47.652Z,2.85
2023-04-07T06:16:51.872Z,2.88
2023-04-07T06:17:56.082Z,2.91
2023-04-07T06:19:00.277Z,2.93
2023-04-07T06:20:04.520Z,2.96
2023-04-07T06:21:11.695Z,2.98
2023-04-07T06:22:14.940Z,3.00
2023-04-07T06:23:19.170Z,3.03
2023-04-07T06:24:23.512Z,3.04
2023-04-07T06:25:27.669Z,3.08
2023-04-07T06:26:31.788Z,3.11
2023-04-07T06:27:36.085Z,3.15
2023-04-07T06:28:40.337Z,3.19
2023-04-07T06:29:45.380Z,3.23
2023-04-07T06:30:49.280Z,3.30
2023-04-07T06:31:53.510Z,3.33
2023-04-07T06:32:57.685Z,3.38
2023-04-07T06:34:01.895Z,3.42
2023-04-07T06:35:06.134Z,3.46
2023-04-07T06:36:10.217Z,3.50
2023-04-07T06:37:14.567Z,3.55
2023-04-07T06:38:18.621Z,3.59
2023-04-07T06:39:22.874Z,3.63
2023-04-07T06:40:27.169Z,3.66
2023-04-07T06:41:31.382Z,3.68
2023-04-07T06:42:36.513Z,3.71
2023-04-07T06:43:40.258Z,3.74
2023-04-07T06:44:44.571Z,3.78
2023-04-07T06:45:48.893Z,3.83
2023-04-07T06:46:52.819Z,3.87
2023-04-07T06:47:57.466Z,3.92
2023-04-07T06:49:01.557Z,3.96
2023-04-07T06:50:05.847Z,3.99
2023-04-07T06:51:10.067Z,4.03
2023-04-07T06:52:14.216Z,4.07
2023-04-07T06:53:18.503Z,4.12
2023-04-07T06:54:22.606Z,4.16
2023-04-07T06:55:26.904Z,4.21
2023-04-07T06:56:31.148Z,4.27
2023-04-07T06:57:35.351Z,4.33
2023-04-07T06:58:39.402Z,4.39
2023-04-07T06:59:43.600Z,4.44
2023-04-07T07:00:47.795Z,4.49
2023-04-07T07:01:52.221Z,4.53
2023-04-07T07:03:02.484Z,4.59
2023-04-07T07:04:05.097Z,4.64
2023-04-07T07:05:09.339Z,4.70
2023-04-07T07:06:13.517Z,4.73
2023-04-07T07:07:17.576Z,4.76
2023-04-07T07:08:21.926Z,4.79
2023-04-07T07:09:25.974Z,4.79
2023-04-07T07:10:30.308Z,4.79
2023-04-07T07:11:34.434Z,4.80
2023-04-07T07:12:38.653Z,4.81
2023-04-07T07:13:42.902Z,4.83
2023-04-07T07:14:47.172Z,4.82
2023-04-07T07:15:51.485Z,4.80
2023-04-07T07:16:55.429Z,4.83
2023-04-07T07:17:59.733Z,4.87
2023-04-07T07:19:03.967Z,4.83
2023-04-07T07:20:08.219Z,4.83
2023-04-07T07:21:12.310Z,4.83
2023-04-07T07:22:16.501Z,4.86
2023-04-07T07:23:20.794Z,4.87
2023-04-07T07:24:28.073Z,4.86
2023-04-07T07:25:31.362Z,4.91
2023-04-07T07:26:35.357Z,4.93
2023-04-07T07:27:39.654Z,4.93
2023-04-07T07:28:43.884Z,4.93
2023-04-07T07:29:48.113Z,4.94
2023-04-07T07:30:52.342Z,4.92
2023-04-07T07:31:56.589Z,4.87
2023-04-07T07:33:00.812Z,4.86
2023-04-07T07:34:05.019Z,4.79
2023-04-07T07:35:09.289Z,4.78
2023-04-07T07:36:13.479Z,4.81
2023-04-07T07:37:17.727Z,4.82
2023-04-07T07:38:21.974Z,4.88
2023-04-07T07:39:26.152Z,4.96
2023-04-07T07:40:30.422Z,5.02
2023-04-07T07:41:34.745Z,5.07
2023-04-07T07:42:38.919Z,5.09
2023-04-07T07:43:43.108Z,5.15
2023-04-07T07:44:48.255Z,5.15
2023-04-07T07:45:52.044Z,5.12
2023-04-07T07:46:56.401Z,5.14
2023-04-07T07:48:00.809Z,5.17
2023-04-07T07:49:04.825Z,5.16
2023-04-07T07:50:08.950Z,5.12
2023-04-07T07:51:13.338Z,5.11
2023-04-07T07:52:17.492Z,5.16
2023-04-07T07:53:21.757Z,5.13
2023-04-07T07:54:25.981Z,5.06
2023-04-07T07:55:30.236Z,4.96
2023-04-07T07:56:34.322Z,4.88
2023-04-07T07:57:38.555Z,4.88
2023-04-07T07:58:42.843Z,4.89
2023-04-07T07:59:47.100Z,4.92
2023-04-07T08:00:51.251Z,4.93
2023-04-07T08:01:55.448Z,4.94
2023-04-07T08:02:59.805Z,4.94
2023-04-07T08:04:04.005Z,4.88
2023-04-07T08:05:08.184Z,4.97
2023-04-07T08:06:12.313Z,5.01
2023-04-07T08:07:16.456Z,5.12
2023-04-07T08:08:20.882Z,5.24
2023-04-07T08:09:25.017Z,5.27
2023-04-07T08:10:29.197Z,5.19
2023-04-07T08:11:33.440Z,5.13
2023-04-07T08:12:37.803Z,5.03
2023-04-07T08:13:41.888Z,4.99
2023-04-07T08:14:46.187Z,4.84
2023-04-07T08:15:50.491Z,4.87
2023-04-07T08:16:54.609Z,4.87
2023-04-07T08:17:58.882Z,4.91
2023-04-07T08:19:03.100Z,4.90
2023-04-07T08:20:21.316Z,4.87
2023-04-07T08:21:24.441Z,4.92
2023-04-07T08:22:31.572Z,5.00
2023-04-07T08:23:34.906Z,5.11
2023-04-07T08:24:39.102Z,5.17
2023-04-07T08:25:43.360Z,5.18
2023-04-07T08:26:47.611Z,5.18
2023-04-07T08:27:51.800Z,5.06
2023-04-07T08:28:56.072Z,5.03
2023-04-07T08:30:00.282Z,4.87
2023-04-07T08:31:04.492Z,4.79
2023-04-07T08:32:08.697Z,4.69
2023-04-07T08:33:12.905Z,4.51
2023-04-07T08:34:17.127Z,4.40
2023-04-07T08:35:21.270Z,4.34
2023-04-07T08:36:25.529Z,4.36
2023-04-07T08:37:29.792Z,4.30
2023-04-07T08:38:34.017Z,4.36
2023-04-07T08:39:38.260Z,4.39
2023-04-07T08:40:42.485Z,4.45
2023-04-07T08:41:46.716Z,4.41
2023-04-07T08:42:51.005Z,4.48
2023-04-07T08:43:55.303Z,4.57
2023-04-07T08:45:00.919Z,4.56
2023-04-07T08:46:03.726Z,4.55
2023-04-07T08:47:08.191Z,4.62
2023-04-07T08:48:12.334Z,4.73
2023-04-07T08:49:16.600Z,4.84
2023-04-07T08:50:20.786Z,4.88
2023-04-07T08:51:25.215Z,4.89
2023-04-07T08:52:29.327Z,4.91
2023-04-07T08:53:33.626Z,4.86
2023-04-07T08:54:37.886Z,4.87
2023-04-07T08:55:42.074Z,4.93
2023-04-07T08:56:46.239Z,4.99
2023-04-07T08:57:50.524Z,5.04
2023-04-07T08:58:54.690Z,5.08
2023-04-07T08:59:59.065Z,5.05
2023-04-07T09:01:03.227Z,5.01
2023-04-07T09:02:07.609Z,4.92
2023-04-07T09:03:12.068Z,4.87
2023-04-07T09:04:16.064Z,4.84
2023-04-07T09:05:20.279Z,4.81
2023-04-07T09:06:24.540Z,4.82
2023-04-07T09:07:28.753Z,4.83
2023-04-07T09:08:38.992Z,4.88
2023-04-07T09:09:41.664Z,4.84
2023-04-07T09:10:45.992Z,4.86
2023-04-07T09:11:50.141Z,4.88
2023-04-07T09:12:54.420Z,4.86
2023-04-07T09:13:58.602Z,4.88
2023-04-07T09:15:02.897Z,4.82
2023-04-07T09:16:07.084Z,4.74
2023-04-07T09:17:11.339Z,4.72
2023-04-07T09:18:15.562Z,4.68
2023-04-07T09:19:19.733Z,4.65
2023-04-07T09:20:24.042Z,4.64
2023-04-07T09:21:28.201Z,4.63
2023-04-07T09:22:32.436Z,4.59
2023-04-07T09:23:36.708Z,4.56
2023-04-07T09:24:55.011Z,4.59
2023-04-07T09:25:58.074Z,4.69
2023-04-07T09:27:02.307Z,4.69
2023-04-07T09:28:06.490Z,4.72
2023-04-07T09:29:10.782Z,4.77
2023-04-07T09:30:15.073Z,4.80
2023-04-07T09:31:19.294Z,4.75
2023-04-07T09:32:23.557Z,4.72
2023-04-07T09:33:27.769Z,4.64
2023-04-07T09:34:32.014Z,4.62
2023-04-07T09:35:36.232Z,4.66
2023-04-07T09:36:40.569Z,4.59
2023-04-07T09:37:44.749Z,4.58
2023-04-07T09:38:51.949Z,4.52
2023-04-07T09:39:55.238Z,4.54
2023-04-07T09:40:59.502Z,4.58
2023-04-07T09:42:03.637Z,4.57
2023-04-07T09:43:07.869Z,4.58
2023-04-07T09:44:12.132Z,4.62
2023-04-07T09:45:27.231Z,4.62
2023-04-07T09:46:20.665Z,4.46
2023-04-07T09:47:24.779Z,4.40
2023-04-07T09:48:29.050Z,4.39
2023-04-07T09:49:33.326Z,4.36
2023-04-07T09:50:37.539Z,4.35
2023-04-07T09:51:41.814Z,4.38
2023-04-07T09:52:46.091Z,4.45
2023-04-07T09:53:50.606Z,4.49
2023-04-07T09:54:54.460Z,4.52
2023-04-07T09:55:58.736Z,4.55
2023-04-07T09:57:02.982Z,4.56
2023-04-07T09:58:07.155Z,4.59
2023-04-07T09:59:11.458Z,4.64
2023-04-07T10:00:15.654Z,4.68
2023-04-07T10:01:19.890Z,4.72
2023-04-07T10:02:24.143Z,4.74
2023-04-07T10:03:28.396Z,4.75
2023-04-07T10:04:32.593Z,4.73
2023-04-07T10:05:36.835Z,4.74
2023-04-07T10:06:42.032Z,4.72
2023-04-07T10:07:45.908Z,4.71
2023-04-07T10:08:50.312Z,4.73
2023-04-07T10:09:54.400Z,4.78
2023-04-07T10:10:58.735Z,4.80
2023-04-07T10:12:02.939Z,4.82
2023-04-07T10:13:07.132Z,4.81
2023-04-07T10:14:11.299Z,4.81
2023-04-07T10:15:15.493Z,4.81
2023-04-07T10:16:19.766Z,4.83
2023-04-07T10:17:23.952Z,4.82
2023-04-07T10:18:28.300Z,4.83
2023-04-07T10:19:32.484Z,4.84
2023-04-07T10:20:36.713Z,4.86
2023-04-07T10:21:40.968Z,4.86
2023-04-07T10:22:45.157Z,4.88
2023-04-07T10:23:49.930Z,4.92
2023-04-07T10:24:56.672Z,5.00
2023-04-07T10:26:00.021Z,5.02
2023-04-07T10:27:04.281Z,5.02
2023-04-07T10:28:08.568Z,5.02
2023-04-07T10:29:12.819Z,5.01
2023-04-07T10:30:17.046Z,5.03
2023-04-07T10:31:21.327Z,5.07
2023-04-07T10:32:25.596Z,5.14
2023-04-07T10:33:29.744Z,5.19
2023-04-07T10:34:33.848Z,5.22
2023-04-07T10:35:38.220Z,5.22
2023-04-07T10:36:42.439Z,5.25
2023-04-07T10:37:46.716Z,5.27
2023-04-07T10:38:50.951Z,5.27
2023-04-07T10:39:55.136Z,5.29
2023-04-07T10:40:59.416Z,5.29
2023-04-07T10:42:03.676Z,5.30
2023-04-07T10:43:07.900Z,5.31
2023-04-07T10:44:26.207Z,5.33
2023-04-07T10:45:29.343Z,5.37
2023-04-07T10:46:33.608Z,5.40
2023-04-07T10:47:37.772Z,5.45
2023-04-07T10:48:42.097Z,5.49
2023-04-07T10:49:46.325Z,5.53
2023-04-07T10:50:50.471Z,5.57
2023-04-07T10:51:54.687Z,5.56
2023-04-07T10:52:58.908Z,5.54
2023-04-07T10:54:03.143Z,5.50
2023-04-07T10:55:07.370Z,5.46
2023-04-07T10:56:11.497Z,5.45
2023-04-07T10:57:15.886Z,5.42
2023-04-07T10:58:20.052Z,5.41
2023-04-07T10:59:24.336Z,5.39
2023-04-07T11:00:28.553Z,5.38
2023-04-07T11:01:32.889Z,5.35
2023-04-07T11:02:37.237Z,5.33
2023-04-07T11:03:41.332Z,5.34
2023-04-07T11:04:45.639Z,5.35
2023-04-07T11:05:49.741Z,5.37
2023-04-07T11:06:54.008Z,5.38
2023-04-07T11:07:58.202Z,5.40
2023-04-07T11:09:02.382Z,5.40
2023-04-07T11:10:06.678Z,5.41
2023-04-07T11:11:10.912Z,5.40
2023-04-07T11:12:15.102Z,5.37
2023-04-07T11:13:19.380Z,5.37
2023-04-07T11:14:23.657Z,5.36
2023-04-07T11:15:27.898Z,5.36
2023-04-07T11:16:32.249Z,5.38
2023-04-07T11:17:36.446Z,5.39
2023-04-07T11:18:40.602Z,5.42
2023-04-07T11:19:44.875Z,5.45
2023-04-07T11:20:49.150Z,5.50
2023-04-07T11:21:53.373Z,5.52
2023-04-07T11:22:57.597Z,5.54
2023-04-07T11:24:01.886Z,5.58
2023-04-07T11:25:06.145Z,5.61
2023-04-07T11:26:10.320Z,5.64
2023-04-07T11:27:14.576Z,5.64
2023-04-07T11:28:18.815Z,5.66
2023-04-07T11:29:23.085Z,5.67
2023-04-07T11:30:27.250Z,5.69
2023-04-07T11:31:31.746Z,5.73
2023-04-07T11:32:35.775Z,5.75
2023-04-07T11:33:39.989Z,5.78
2023-04-07T11:34:44.251Z,5.79
2023-04-07T11:35:48.445Z,5.82
2023-04-07T11:36:52.731Z,5.86
2023-04-07T11:37:57.075Z,5.88
2023-04-07T11:39:01.298Z,5.92
2023-04-07T11:40:05.493Z,5.92
2023-04-07T11:41:09.762Z,5.95
2023-04-07T11:42:14.024Z,5.95
2023-04-07T11:43:18.214Z,5.95
2023-04-07T11:44:22.495Z,5.96
2023-04-07T11:45:26.754Z,5.99
2023-04-07T11:46:31.010Z,6.00
2023-04-07T11:47:35.250Z,6.02
2023-04-07T11:48:39.475Z,6.04
2023-04-07T11:49:43.699Z,6.06
2023-04-07T11:50:47.955Z,6.09
2023-04-07T11:51:52.155Z,6.08
2023-04-07T11:52:56.411Z,6.10
2023-04-07T11:54:00.579Z,6.09
2023-04-07T11:55:04.824Z,6.06
2023-04-07T11:56:08.988Z,6.09
2023-04-07T11:57:13.328Z,6.09
2023-04-07T11:58:17.501Z,6.11
2023-04-07T11:59:21.638Z,6.14
2023-04-07T12:00:25.923Z,6.18
2023-04-07T12:01:30.181Z,6.20
2023-04-07T12:02:34.636Z,6.22
2023-04-07T12:03:38.771Z,6.26
2023-04-07T12:04:42.829Z,6.29
2023-04-07T12:05:53.168Z,6.28
2023-04-07T12:06:55.929Z,6.28
2023-04-07T12:08:00.221Z,6.30
2023-04-07T12:09:04.514Z,6.32
2023-04-07T12:10:08.659Z,6.35
2023-04-07T12:11:12.960Z,6.35
2023-04-07T12:12:17.240Z,6.37
2023-04-07T12:13:21.376Z,6.38
2023-04-07T12:14:25.743Z,6.39
2023-04-07T12:15:29.972Z,6.40
2023-04-07T12:16:34.170Z,6.41
2023-04-07T12:17:38.395Z,6.41
2023-04-07T12:18:42.646Z,6.41
2023-04-07T12:19:46.890Z,6.42
2023-04-07T12:20:51.047Z,6.42
2023-04-07T12:21:55.289Z,6.41
2023-04-07T12:23:00.617Z,6.40
2023-04-07T12:24:04.403Z,6.42
2023-04-07T12:25:08.755Z,6.44
2023-04-07T12:26:13.013Z,6.45
2023-04-07T12:27:17.081Z,6.43
2023-04-07T12:28:21.375Z,6.44
2023-04-07T12:29:25.632Z,6.43
2023-04-07T12:30:29.894Z,6.42
2023-04-07T12:31:34.179Z,6.40
2023-04-07T12:32:38.510Z,6.41
2023-04-07T12:33:42.517Z,6.38
2023-04-07T12:34:46.840Z,6.38
2023-04-07T12:35:54.139Z,6.40
2023-04-07T12:36:57.380Z,6.41
2023-04-07T12:38:01.667Z,6.41
2023-04-07T12:39:05.881Z,6.40
2023-04-07T12:40:10.140Z,6.38
2023-04-07T12:41:14.382Z,6.33
2023-04-07T12:42:21.589Z,6.32
2023-04-07T12:43:24.904Z,6.31
2023-04-07T12:44:29.100Z,6.30
2023-04-07T12:45:33.353Z,6.29
2023-04-07T12:46:37.556Z,6.30
2023-04-07T12:47:41.882Z,6.30
2023-04-07T12:48:46.030Z,6.27
2023-04-07T12:49:50.511Z,6.25
2023-04-07T12:50:54.503Z,6.22
2023-04-07T12:51:58.676Z,6.21
2023-04-07T12:53:02.996Z,6.19
2023-04-07T12:54:07.218Z,6.21
2023-04-07T12:55:11.470Z,6.22
2023-04-07T12:56:15.729Z,6.23
2023-04-07T12:57:19.959Z,6.24
2023-04-07T12:58:24.177Z,6.23
2023-04-07T12:59:28.378Z,6.24
2023-04-07T13:00:32.561Z,6.23
2023-04-07T13:01:36.780Z,6.20
2023-04-07T13:02:41.096Z,6.17
2023-04-07T13:03:45.408Z,6.13
2023-04-07T13:04:49.438Z,6.12
2023-04-07T13:05:53.736Z,6.13
2023-04-07T13:06:57.992Z,6.12
2023-04-07T13:08:02.177Z,6.09
2023-04-07T13:09:06.414Z,6.08
2023-04-07T13:10:10.731Z,6.06
2023-04-07T13:11:14.865Z,6.06
2023-04-07T13:12:19.167Z,6.06
2023-04-07T13:13:23.461Z,6.06
2023-04-07T13:14:27.696Z,6.08
2023-04-07T13:15:31.946Z,6.09
2023-04-07T13:16:36.212Z,6.10
2023-04-07T13:17:40.460Z,6.11
2023-04-07T13:18:44.626Z,6.12
2023-04-07T13:19:48.870Z,6.14
2023-04-07T13:21:14.354Z,6.17
2023-04-07T13:21:57.226Z,6.19
2023-04-07T13:23:07.829Z,6.17
2023-04-07T13:24:05.754Z,6.16
2023-04-07T13:25:09.998Z,6.14
2023-04-07T13:26:14.131Z,6.16
2023-04-07T13:27:21.348Z,6.18
2023-04-07T13:28:24.668Z,6.18
2023-04-07T13:29:28.912Z,6.21
2023-04-07T13:30:33.004Z,6.23
2023-04-07T13:31:37.313Z,6.25
2023-04-07T13:32:41.462Z,6.24
2023-04-07T13:33:45.742Z,6.25
2023-04-07T13:34:49.902Z,6.27
2023-04-07T13:35:54.186Z,6.29
2023-04-07T13:37:04.324Z,6.28
2023-04-07T13:38:07.168Z,6.27
2023-04-07T13:39:11.338Z,6.26
2023-04-07T13:40:15.558Z,6.26
2023-04-07T13:41:19.811Z,6.25
2023-04-07T13:42:23.973Z,6.26
2023-04-07T13:43:28.208Z,6.25
2023-04-07T13:44:32.606Z,6.25
2023-04-07T13:45:36.686Z,6.25
2023-04-07T13:46:41.023Z,6.26
2023-04-07T13:47:45.146Z,6.26
2023-04-07T13:48:49.355Z,6.27
2023-04-07T13:49:53.620Z,6.26
2023-04-07T13:50:57.892Z,6.26
2023-04-07T13:52:01.937Z,6.25
2023-04-07T13:53:09.292Z,6.24
2023-04-07T13:54:12.505Z,6.24
2023-04-07T13:55:16.678Z,6.25
2023-04-07T13:56:20.868Z,6.25
2023-04-07T13:57:25.064Z,6.24
2023-04-07T13:58:43.305Z,6.23
2023-04-07T13:59:46.276Z,6.23
2023-04-07T14:00:50.513Z,6.23
2023-04-07T14:01:54.647Z,6.23
2023-04-07T14:02:59.035Z,6.23
2023-04-07T14:04:03.217Z,6.23
2023-04-07T14:05:07.317Z,6.23
2023-04-07T14:06:11.578Z,6.21
2023-04-07T14:07:15.757Z,6.20
2023-04-07T14:08:19.965Z,6.19
2023-04-07T14:09:24.246Z,6.19
2023-04-07T14:10:28.368Z,6.17
2023-04-07T14:11:32.710Z,6.15
2023-04-07T14:12:36.931Z,6.14
2023-04-07T14:13:41.085Z,6.13
2023-04-07T14:14:45.363Z,6.12
2023-04-07T14:15:49.672Z,6.10
2023-04-07T14:16:53.934Z,6.10